createdAt,value
2023-02-07T00:00:08.527Z,964.1665649
2023-02-07T00:01:09.134Z,964.2279663
2023-02-07T00:02:09.674Z,964.1837769
2023-02-07T00:03:10.863Z,964.1688843
2023-02-07T00:04:41.921Z,964.2090454
2023-02-07T00:05:42.933Z,964.1512451
2023-02-07T00:06:43.415Z,964.1454468
2023-02-07T00:07:44.083Z,964.0717163
2023-02-07T00:08:44.592Z,964.0352173
2023-02-07T00:09:45.101Z,964.0411987
2023-02-07T00:10:45.627Z,963.998291
2023-02-07T00:11:46.168Z,963.9321899
2023-02-07T00:12:47.527Z,964.0089111
2023-02-07T00:13:47.982Z,963.9927979
2023-02-07T00:14:48.568Z,963.977478
2023-02-07T00:15:48.992Z,963.9866333
2023-02-07T00:16:49.511Z,964.0058594
2023-02-07T00:17:50.166Z,964.0426636
2023-02-07T00:18:50.508Z,964.1066284
2023-02-07T00:19:51.121Z,964.1166992
2023-02-07T00:20:51.544Z,964.2006836
2023-02-07T00:21:52.000Z,964.1931763
2023-02-07T00:22:53.510Z,964.2316895
2023-02-07T00:23:53.972Z,964.2999268
2023-02-07T00:24:54.550Z,964.2927856
2023-02-07T00:25:54.986Z,964.3551025
2023-02-07T00:26:55.520Z,964.2640381
2023-02-07T00:27:56.223Z,964.2937622
2023-02-07T00:28:57.221Z,964.3638916
2023-02-07T00:29:57.810Z,964.3470459
2023-02-07T00:30:58.379Z,964.3841553
2023-02-07T00:31:58.757Z,964.3340454
2023-02-07T00:33:00.050Z,964.3340454
2023-02-07T00:34:00.749Z,964.2555542
2023-02-07T00:35:02.045Z,964.2526855
2023-02-07T00:36:02.544Z,964.2368774
2023-02-07T00:37:02.952Z,964.2775879
2023-02-07T00:38:03.487Z,964.2189331
2023-02-07T00:39:03.959Z,964.2267456
2023-02-07T00:40:04.566Z,964.2792358
2023-02-07T00:41:05.061Z,964.2410889
2023-02-07T00:42:05.520Z,964.2902222
2023-02-07T00:43:06.736Z,964.1947021
2023-02-07T00:44:07.177Z,964.1688843
2023-02-07T00:45:07.727Z,964.1518555
2023-02-07T00:46:08.276Z,964.1398926
2023-02-07T00:47:08.702Z,964.2600098
2023-02-07T00:48:09.241Z,964.1972046
2023-02-07T00:49:09.664Z,964.234314
2023-02-07T00:50:10.458Z,964.0884399
2023-02-07T00:51:41.296Z,964.0643921
2023-02-07T00:52:42.431Z,964.118103
2023-02-07T00:53:42.860Z,964.0730591
2023-02-07T00:54:43.353Z,964.0548706
2023-02-07T00:55:43.870Z,964.0473633
2023-02-07T00:56:44.352Z,964.0029907
2023-02-07T00:57:44.806Z,964.0704956
2023-02-07T00:58:45.246Z,964.0545044
2023-02-07T00:59:45.722Z,964.0626831
2023-02-07T01:00:46.194Z,964.0378418
2023-02-07T01:01:46.752Z,963.9937744
2023-02-07T01:02:47.239Z,964.0635986
2023-02-07T01:03:48.762Z,964.0882568
2023-02-07T01:04:49.386Z,964.0669556
2023-02-07T01:05:50.672Z,964.1154785
2023-02-07T01:06:51.219Z,964.1235962
2023-02-07T01:07:51.697Z,964.1668701
2023-02-07T01:08:52.178Z,964.1637573
2023-02-07T01:09:52.628Z,964.1369019
2023-02-07T01:10:53.077Z,964.1582031
2023-02-07T01:11:53.615Z,964.1311035
2023-02-07T01:12:54.948Z,964.1612549
2023-02-07T01:13:55.422Z,964.2427979
2023-02-07T01:14:56.034Z,964.2157593
2023-02-07T01:15:56.477Z,964.1911011
2023-02-07T01:16:56.931Z,964.2440796
2023-02-07T01:17:57.476Z,964.3070068
2023-02-07T01:18:57.993Z,964.2814331
2023-02-07T01:19:58.534Z,964.2463989
2023-02-07T01:20:58.969Z,964.2873535
2023-02-07T01:21:59.440Z,964.3029785
2023-02-07T01:23:00.958Z,964.274353
2023-02-07T01:24:01.420Z,964.2249756
2023-02-07T01:25:02.042Z,964.1227417
2023-02-07T01:26:02.451Z,964.2375488
2023-02-07T01:27:02.969Z,964.2728882
2023-02-07T01:28:03.553Z,964.2745361
2023-02-07T01:29:04.005Z,964.1705322
2023-02-07T01:30:04.589Z,964.1445313
2023-02-07T01:31:05.080Z,964.149292
2023-02-07T01:32:05.497Z,964.1350098
2023-02-07T01:33:06.545Z,964.0861206
2023-02-07T01:34:07.302Z,964.0604858
2023-02-07T01:35:08.146Z,964.0280762
2023-02-07T01:36:09.692Z,964.0073242
2023-02-07T01:37:40.783Z,964.0007935
2023-02-07T01:38:41.393Z,964.0267334
2023-02-07T01:39:41.850Z,963.991272
2023-02-07T01:40:42.486Z,963.9533691
2023-02-07T01:41:43.101Z,963.9572144
2023-02-07T01:42:43.516Z,963.9436035
2023-02-07T01:43:44.696Z,963.8863525
2023-02-07T01:44:45.277Z,963.8481445
2023-02-07T01:45:45.753Z,963.8920288
2023-02-07T01:46:46.444Z,963.9312744
2023-02-07T01:47:46.899Z,963.8540649
2023-02-07T01:48:47.417Z,963.8532715
2023-02-07T01:49:47.974Z,963.883606
2023-02-07T01:50:48.467Z,963.9059448
2023-02-07T01:51:48.998Z,963.8874512
2023-02-07T01:52:49.434Z,963.8154907
2023-02-07T01:53:50.690Z,963.7824707
2023-02-07T01:54:51.106Z,963.77948
2023-02-07T01:55:51.704Z,963.8233643
2023-02-07T01:56:52.193Z,963.8604736
2023-02-07T01:57:52.776Z,963.8684082
2023-02-07T01:58:53.255Z,963.9240723
2023-02-07T01:59:53.717Z,963.9436646
2023-02-07T02:00:54.319Z,963.9419556
2023-02-07T02:01:54.882Z,963.8964844
2023-02-07T02:02:55.612Z,963.8984375
2023-02-07T02:03:56.678Z,963.9187622
2023-02-07T02:04:57.176Z,963.890625
2023-02-07T02:05:58.663Z,963.8936157
2023-02-07T02:06:59.187Z,963.9282837
2023-02-07T02:07:59.725Z,963.9021606
2023-02-07T02:09:00.248Z,963.9181519
2023-02-07T02:10:00.832Z,963.8947754
2023-02-07T02:11:01.257Z,963.8786011
2023-02-07T02:12:01.775Z,963.8601685
2023-02-07T02:13:02.367Z,963.8491211
2023-02-07T02:14:03.805Z,963.7993774
2023-02-07T02:15:04.336Z,963.8043823
2023-02-07T02:16:04.819Z,963.812439
2023-02-07T02:17:05.264Z,963.772644
2023-02-07T02:18:05.808Z,963.7843628
2023-02-07T02:19:06.338Z,963.7422485
2023-02-07T02:20:06.961Z,963.7109375
2023-02-07T02:21:07.374Z,963.7402954
2023-02-07T02:22:08.739Z,963.7489014
2023-02-07T02:23:09.265Z,963.7388306
2023-02-07T02:24:41.149Z,963.6854858
2023-02-07T02:25:41.647Z,963.7678223
2023-02-07T02:26:42.210Z,963.711853
2023-02-07T02:27:42.573Z,963.7020264
2023-02-07T02:28:43.047Z,963.6582031
2023-02-07T02:29:43.657Z,963.649353
2023-02-07T02:30:44.199Z,963.6743774
2023-02-07T02:31:44.800Z,963.6835938
2023-02-07T02:32:45.056Z,963.7151489
2023-02-07T02:33:46.473Z,963.7859497
2023-02-07T02:34:47.032Z,963.7931519
2023-02-07T02:35:48.447Z,963.7459106
2023-02-07T02:36:49.054Z,963.7260742
2023-02-07T02:37:49.471Z,963.7626343
2023-02-07T02:38:50.023Z,963.7788086
2023-02-07T02:39:50.574Z,963.7490845
2023-02-07T02:40:51.050Z,963.7842407
2023-02-07T02:41:51.650Z,963.7076416
2023-02-07T02:42:52.151Z,963.7190552
2023-02-07T02:43:53.459Z,963.7957153
2023-02-07T02:44:53.916Z,963.8074951
2023-02-07T02:45:54.493Z,963.796814
2023-02-07T02:46:55.226Z,963.8308105
2023-02-07T02:47:55.731Z,963.8760986
2023-02-07T02:48:56.141Z,963.8478394
2023-02-07T02:49:56.635Z,963.8482666
2023-02-07T02:50:57.144Z,963.8707886
2023-02-07T02:51:57.716Z,963.8908081
2023-02-07T02:52:58.159Z,963.8894043
2023-02-07T02:53:58.675Z,963.9185791
2023-02-07T02:54:59.648Z,963.9050293
2023-02-07T02:56:00.110Z,963.9433594
2023-02-07T02:57:00.708Z,963.9425049
2023-02-07T02:58:02.267Z,963.9389038
2023-02-07T02:59:01.700Z,964.0725708
2023-02-07T03:00:02.130Z,964.053894
2023-02-07T03:01:02.615Z,964.1070557
2023-02-07T03:02:03.190Z,964.0958862
2023-02-07T03:03:03.669Z,964.1182861
2023-02-07T03:04:04.968Z,964.1303101
2023-02-07T03:05:05.392Z,964.1166992
2023-02-07T03:06:06.469Z,964.1426392
2023-02-07T03:07:06.934Z,964.1420288
2023-02-07T03:08:07.547Z,964.1975098
2023-02-07T03:09:08.100Z,964.211853
2023-02-07T03:10:08.556Z,964.1949463
2023-02-07T03:11:39.655Z,964.1720581
2023-02-07T03:12:40.069Z,964.2277832
2023-02-07T03:13:41.019Z,964.2564087
2023-02-07T03:14:42.192Z,964.2457886
2023-02-07T03:15:42.726Z,964.2712402
2023-02-07T03:16:43.147Z,964.3146973
2023-02-07T03:17:43.570Z,964.2554932
2023-02-07T03:18:44.217Z,964.2773438
2023-02-07T03:19:44.709Z,964.2693481
2023-02-07T03:20:45.286Z,964.256958
2023-02-07T03:21:45.769Z,964.2393799
2023-02-07T03:22:46.174Z,964.3363037
2023-02-07T03:23:46.640Z,964.3473511
2023-02-07T03:24:47.790Z,964.3815918
2023-02-07T03:25:48.396Z,964.3776855
2023-02-07T03:26:48.876Z,964.3972168
2023-02-07T03:27:49.351Z,964.4046631
2023-02-07T03:28:49.825Z,964.4181519
2023-02-07T03:29:50.354Z,964.461731
2023-02-07T03:30:50.982Z,964.453125
2023-02-07T03:31:51.462Z,964.4921875
2023-02-07T03:32:51.923Z,964.5264282
2023-02-07T03:33:52.407Z,964.5887451
2023-02-07T03:34:53.713Z,964.6646729
2023-02-07T03:35:54.311Z,964.6584473
2023-02-07T03:36:54.838Z,964.640625
2023-02-07T03:37:55.461Z,964.6394043
2023-02-07T03:38:55.874Z,964.6743774
2023-02-07T03:39:57.151Z,964.7075806
2023-02-07T03:40:57.709Z,964.6887207
2023-02-07T03:41:58.239Z,964.7220459
2023-02-07T03:42:58.913Z,964.7168579
2023-02-07T03:43:59.334Z,964.7335205
2023-02-07T03:45:00.696Z,964.7608032
2023-02-07T03:46:01.134Z,964.8467407
2023-02-07T03:47:01.855Z,964.8891602
2023-02-07T03:48:02.413Z,964.8814087
2023-02-07T03:49:02.856Z,964.9245605
2023-02-07T03:50:03.406Z,964.9064331
2023-02-07T03:51:03.807Z,964.9343262
2023-02-07T03:52:04.456Z,964.9435425
2023-02-07T03:53:04.935Z,964.994751
2023-02-07T03:54:05.958Z,964.956543
2023-02-07T03:55:06.512Z,964.972168
2023-02-07T03:56:06.921Z,965.0697632
2023-02-07T03:57:07.335Z,965.088623
2023-02-07T03:58:07.885Z,965.2020874
2023-02-07T03:59:39.568Z,965.2345581
2023-02-07T04:00:40.104Z,965.2165527
2023-02-07T04:01:40.750Z,965.2692261
2023-02-07T04:02:41.376Z,965.2684937
2023-02-07T04:03:41.837Z,965.2845459
2023-02-07T04:04:43.182Z,965.3286133
2023-02-07T04:05:43.634Z,965.4049072
2023-02-07T04:06:44.654Z,965.397583
2023-02-07T04:07:45.224Z,965.4706421
2023-02-07T04:08:45.736Z,965.4932861
2023-02-07T04:09:46.224Z,965.4793701
2023-02-07T04:10:46.727Z,965.5192261
2023-02-07T04:11:47.149Z,965.5282593
2023-02-07T04:12:47.646Z,965.5670166
2023-02-07T04:13:48.139Z,965.5368652
2023-02-07T04:14:49.177Z,965.5140381
2023-02-07T04:15:49.690Z,965.5393066
2023-02-07T04:16:50.121Z,965.5518799
2023-02-07T04:17:50.554Z,965.52948
2023-02-07T04:18:51.083Z,965.6361084
2023-02-07T04:19:51.721Z,965.684082
2023-02-07T04:20:52.252Z,965.7249756
2023-02-07T04:21:52.762Z,965.7062378
2023-02-07T04:22:53.248Z,965.7375488
2023-02-07T04:23:53.710Z,965.7276611
2023-02-07T04:24:55.216Z,965.6942139
2023-02-07T04:25:55.897Z,965.743103
2023-02-07T04:26:56.428Z,965.7332764
2023-02-07T04:27:57.050Z,965.6984253
2023-02-07T04:28:57.490Z,965.7288818
2023-02-07T04:29:57.951Z,965.7191162
2023-02-07T04:30:59.548Z,965.7354126
2023-02-07T04:32:00.052Z,965.7832031
2023-02-07T04:33:00.500Z,965.7791138
2023-02-07T04:34:00.928Z,965.7575073
2023-02-07T04:35:02.136Z,965.8164063
2023-02-07T04:36:02.764Z,965.8273315
2023-02-07T04:37:03.272Z,965.8613892
2023-02-07T04:38:03.798Z,965.8186035
2023-02-07T04:39:04.313Z,965.8853149
2023-02-07T04:40:05.640Z,965.8831787
2023-02-07T04:41:06.301Z,965.9003906
2023-02-07T04:42:06.790Z,965.9511108
2023-02-07T04:43:07.419Z,966.045166
2023-02-07T04:44:38.933Z,966.0853271
2023-02-07T04:45:39.772Z,966.0836792
2023-02-07T04:46:39.948Z,966.1000977
2023-02-07T04:47:40.812Z,966.1559448
2023-02-07T04:48:41.369Z,966.1425171
2023-02-07T04:49:41.818Z,966.1166992
2023-02-07T04:50:42.369Z,966.1937256
2023-02-07T04:51:42.772Z,966.2023315
2023-02-07T04:52:43.408Z,966.2623291
2023-02-07T04:53:43.961Z,966.2254639
2023-02-07T04:54:44.902Z,966.2365723
2023-02-07T04:55:45.422Z,966.2514038
2023-02-07T04:56:45.843Z,966.2697144
2023-02-07T04:57:46.440Z,966.3222046
2023-02-07T04:58:46.922Z,966.3013916
2023-02-07T04:59:47.439Z,966.3063354
2023-02-07T05:00:47.937Z,966.2737427
2023-02-07T05:01:48.325Z,966.2404785
2023-02-07T05:02:48.895Z,966.2645264
2023-02-07T05:03:49.457Z,966.326416
2023-02-07T05:04:50.858Z,966.3579712
2023-02-07T05:05:52.158Z,966.3612671
2023-02-07T05:06:52.646Z,966.3248291
2023-02-07T05:07:53.114Z,966.2577515
2023-02-07T05:08:53.690Z,966.2022095
2023-02-07T05:09:54.733Z,966.2371826
2023-02-07T05:10:55.245Z,966.2354736
2023-02-07T05:11:55.750Z,966.2868652
2023-02-07T05:12:56.227Z,966.2851563
2023-02-07T05:13:56.888Z,966.3635864
2023-02-07T05:14:59.278Z,966.4302368
2023-02-07T05:15:58.387Z,966.5119019
2023-02-07T05:16:58.952Z,966.4456177
2023-02-07T05:17:59.386Z,966.4918823
2023-02-07T05:18:59.912Z,966.5579834
2023-02-07T05:20:00.451Z,966.5775146
2023-02-07T05:21:00.948Z,966.6063843
2023-02-07T05:22:01.561Z,966.6294556
2023-02-07T05:23:02.008Z,966.6386108
2023-02-07T05:24:02.456Z,966.5921021
2023-02-07T05:25:03.515Z,966.6486816
2023-02-07T05:26:04.137Z,966.6617432
2023-02-07T05:27:04.685Z,966.7125244
2023-02-07T05:28:05.116Z,966.7283325
2023-02-07T05:29:05.606Z,966.7695923
2023-02-07T05:30:06.620Z,966.7530518
2023-02-07T05:31:07.943Z,966.7746582
2023-02-07T05:32:38.656Z,966.7815552
2023-02-07T05:33:39.178Z,966.7940063
2023-02-07T05:34:39.694Z,966.8998413
2023-02-07T05:35:40.481Z,966.9269409
2023-02-07T05:36:41.660Z,966.9731445
2023-02-07T05:37:42.252Z,967.0081177
2023-02-07T05:38:42.717Z,967.0036621
2023-02-07T05:39:43.167Z,967.0148315
2023-02-07T05:40:43.632Z,967.0602417
2023-02-07T05:41:44.181Z,967.0515747
2023-02-07T05:42:44.800Z,967.0906372
2023-02-07T05:43:45.317Z,967.0713501
2023-02-07T05:44:45.756Z,967.0603027
2023-02-07T05:45:46.321Z,967.0493774
2023-02-07T05:46:47.456Z,967.1004639
2023-02-07T05:47:48.068Z,967.1358032
2023-02-07T05:48:48.621Z,967.1638184
2023-02-07T05:49:49.051Z,967.1754761
2023-02-07T05:50:49.573Z,967.1865845
2023-02-07T05:51:50.031Z,967.2034302
2023-02-07T05:52:50.570Z,967.1730347
2023-02-07T05:53:51.019Z,967.2011108
2023-02-07T05:54:51.540Z,967.2111206
2023-02-07T05:55:52.681Z,967.2332764
2023-02-07T05:56:53.087Z,967.2637329
2023-02-07T05:57:53.626Z,967.239502
2023-02-07T05:58:54.081Z,967.2800293
2023-02-07T05:59:54.707Z,967.2677612
2023-02-07T06:00:55.164Z,967.2770386
2023-02-07T06:01:55.595Z,967.263855
2023-02-07T06:02:56.274Z,967.3075562
2023-02-07T06:03:57.443Z,967.305481
2023-02-07T06:04:58.077Z,967.3579712
2023-02-07T06:05:59.158Z,967.3764038
2023-02-07T06:06:59.614Z,967.3950195
2023-02-07T06:08:00.236Z,967.4453125
2023-02-07T06:09:00.757Z,967.4458008
2023-02-07T06:10:01.304Z,967.4174194
2023-02-07T06:11:01.830Z,967.4085693
2023-02-07T06:12:05.086Z,967.4692383
2023-02-07T06:13:02.771Z,967.4452515
2023-02-07T06:14:03.356Z,967.4260864
2023-02-07T06:15:03.906Z,967.4603882
2023-02-07T06:16:05.347Z,967.430481
2023-02-07T06:17:05.700Z,967.5323486
2023-02-07T06:18:06.141Z,967.5271606
2023-02-07T06:19:06.659Z,967.5316162
2023-02-07T06:20:37.807Z,967.5429688
2023-02-07T06:21:46.496Z,967.5448608
2023-02-07T06:22:38.736Z,967.5897827
2023-02-07T06:23:39.241Z,967.6526489
2023-02-07T06:24:39.762Z,967.6712646
2023-02-07T06:25:41.548Z,967.6646729
2023-02-07T06:26:42.089Z,967.675293
2023-02-07T06:27:42.497Z,967.6813965
2023-02-07T06:28:42.978Z,967.6951294
2023-02-07T06:29:43.457Z,967.6936035
2023-02-07T06:30:44.064Z,967.687561
2023-02-07T06:31:44.658Z,967.6871948
2023-02-07T06:32:45.087Z,967.6737671
2023-02-07T06:33:45.587Z,967.6754761
2023-02-07T06:34:46.623Z,967.663147
2023-02-07T06:35:48.019Z,967.6774902
2023-02-07T06:36:48.598Z,967.6734619
2023-02-07T06:37:49.120Z,967.7121582
2023-02-07T06:38:49.544Z,967.7268677
2023-02-07T06:39:49.986Z,967.725647
2023-02-07T06:40:50.505Z,967.7220459
2023-02-07T06:41:51.056Z,967.7576294
2023-02-07T06:42:51.552Z,967.7329102
2023-02-07T06:43:52.336Z,967.7357788
2023-02-07T06:44:52.744Z,967.7185669
2023-02-07T06:45:54.241Z,967.7127075
2023-02-07T06:46:54.848Z,967.7008057
2023-02-07T06:47:55.389Z,967.7262573
2023-02-07T06:48:56.096Z,967.7159424
2023-02-07T06:49:57.393Z,967.7246704
2023-02-07T06:50:57.978Z,967.7181396
2023-02-07T06:51:58.480Z,967.7720337
2023-02-07T06:52:58.986Z,967.8157959
2023-02-07T06:53:59.630Z,967.7734375
2023-02-07T06:55:00.155Z,967.772583
2023-02-07T06:56:01.216Z,967.7757568
2023-02-07T06:57:01.827Z,967.8144531
2023-02-07T06:58:02.596Z,967.802124
2023-02-07T06:59:03.176Z,967.8447876
2023-02-07T07:00:03.697Z,967.8311768
2023-02-07T07:01:04.193Z,967.8240356
2023-02-07T07:02:04.833Z,967.8033447
2023-02-07T07:03:05.461Z,967.7923584
2023-02-07T07:04:05.975Z,967.7701416
2023-02-07T07:05:38.203Z,967.802002
2023-02-07T07:06:38.359Z,967.8179932
2023-02-07T07:07:38.842Z,967.7996826
2023-02-07T07:08:39.357Z,967.8251343
2023-02-07T07:09:40.899Z,967.8171997
2023-02-07T07:10:41.425Z,967.7973633
2023-02-07T07:11:42.022Z,967.7825928
2023-02-07T07:12:42.504Z,967.7980957
2023-02-07T07:13:42.971Z,967.8104858
2023-02-07T07:14:43.591Z,967.8297119
2023-02-07T07:15:44.988Z,967.8504028
2023-02-07T07:16:45.393Z,967.8970947
2023-02-07T07:17:45.930Z,967.9261475
2023-02-07T07:18:46.364Z,967.954834
2023-02-07T07:19:47.027Z,967.956543
2023-02-07T07:20:47.666Z,968.0126343
2023-02-07T07:21:48.277Z,967.9684448
2023-02-07T07:22:48.679Z,968.0039673
2023-02-07T07:23:49.095Z,968.0197144
2023-02-07T07:24:49.661Z,968.0193481
2023-02-07T07:25:50.978Z,968.053772
2023-02-07T07:26:51.495Z,968.053772
2023-02-07T07:27:52.044Z,968.1032715
2023-02-07T07:28:52.498Z,968.0418701
2023-02-07T07:29:53.062Z,968.0283813
2023-02-07T07:30:53.716Z,968.0246582
2023-02-07T07:31:54.358Z,968.1124878
2023-02-07T07:32:54.756Z,968.0917358
2023-02-07T07:33:55.161Z,968.1171875
2023-02-07T07:34:55.711Z,968.1082764
2023-02-07T07:35:56.993Z,968.1635742
2023-02-07T07:36:57.682Z,968.132019
2023-02-07T07:37:58.203Z,968.1713257
2023-02-07T07:38:58.634Z,968.2215576
2023-02-07T07:39:59.168Z,968.2008057
2023-02-07T07:40:59.723Z,968.2644043
2023-02-07T07:42:00.406Z,968.2918091
2023-02-07T07:43:00.811Z,968.2602539
2023-02-07T07:44:01.228Z,968.262207
2023-02-07T07:45:01.669Z,968.2750244
2023-02-07T07:46:02.955Z,968.203125
2023-02-07T07:47:03.496Z,968.1824341
2023-02-07T07:48:03.916Z,968.1640625
2023-02-07T07:49:04.909Z,968.2252197
2023-02-07T07:50:05.430Z,968.2385864
2023-02-07T07:51:36.564Z,968.277832
2023-02-07T07:52:37.087Z,968.3404541
2023-02-07T07:53:37.503Z,968.3251343
2023-02-07T07:54:38.085Z,968.361084
2023-02-07T07:55:38.506Z,968.3585205
2023-02-07T07:56:39.748Z,968.3551025
2023-02-07T07:57:40.210Z,968.3763428
2023-02-07T07:58:40.722Z,968.3534546
2023-02-07T07:59:41.241Z,968.3766479
2023-02-07T08:00:42.664Z,968.3879395
2023-02-07T08:01:42.982Z,968.4207153
2023-02-07T08:02:43.480Z,968.4730225
2023-02-07T08:03:44.068Z,968.4668579
2023-02-07T08:04:45.395Z,968.5271606
2023-02-07T08:05:45.905Z,968.5036011
2023-02-07T08:06:46.403Z,968.5267944
2023-02-07T08:07:47.796Z,968.5179443
2023-02-07T08:08:48.257Z,968.5327148
2023-02-07T08:09:48.736Z,968.5303345
2023-02-07T08:10:50.242Z,968.5759277
2023-02-07T08:11:50.697Z,968.5703125
2023-02-07T08:12:51.221Z,968.5526733
2023-02-07T08:13:51.825Z,968.5654907
2023-02-07T08:14:52.320Z,968.5638428
2023-02-07T08:15:52.911Z,968.5750122
2023-02-07T08:16:54.136Z,968.607666
2023-02-07T08:17:54.663Z,968.619751
2023-02-07T08:18:55.284Z,968.6190796
2023-02-07T08:19:55.837Z,968.6468506
2023-02-07T08:20:56.308Z,968.6126709
2023-02-07T08:21:56.756Z,968.6174927
2023-02-07T08:22:57.269Z,968.645874
2023-02-07T08:23:57.921Z,968.6426392
2023-02-07T08:24:58.389Z,968.5812378
2023-02-07T08:25:58.936Z,968.6235962
2023-02-07T08:27:00.110Z,968.604248
2023-02-07T08:28:02.149Z,968.6190796
2023-02-07T08:29:01.281Z,968.5665894
2023-02-07T08:30:01.784Z,968.600647
2023-02-07T08:31:02.472Z,968.5974731
2023-02-07T08:32:02.858Z,968.6098633
2023-02-07T08:33:03.218Z,968.6414185
2023-02-07T08:34:03.714Z,968.6464844
2023-02-07T08:35:04.912Z,968.6365356
2023-02-07T08:36:36.917Z,968.6286621
2023-02-07T08:37:37.900Z,968.6211548
2023-02-07T08:38:38.348Z,968.6019287
2023-02-07T08:39:38.969Z,968.6878662
2023-02-07T08:40:39.972Z,968.6642456
2023-02-07T08:41:40.140Z,968.7214966
2023-02-07T08:42:40.709Z,968.7199707
2023-02-07T08:43:41.160Z,968.7111206
2023-02-07T08:44:41.708Z,968.7012329
2023-02-07T08:45:43.056Z,968.7288818
2023-02-07T08:46:43.504Z,968.7115479
2023-02-07T08:47:44.008Z,968.7890625
2023-02-07T08:48:44.452Z,968.8098145
2023-02-07T08:49:45.028Z,968.8623657
2023-02-07T08:50:45.576Z,968.8186035
2023-02-07T08:51:46.057Z,968.8244019
2023-02-07T08:52:46.658Z,968.772644
2023-02-07T08:53:47.080Z,968.6964111
2023-02-07T08:54:47.513Z,968.7268677
2023-02-07T08:55:48.042Z,968.756958
2023-02-07T08:56:49.488Z,968.7272949
2023-02-07T08:57:49.946Z,968.7590332
2023-02-07T08:58:50.435Z,968.7851563
2023-02-07T08:59:51.922Z,968.8239136
2023-02-07T09:00:52.370Z,968.8251343
2023-02-07T09:01:52.987Z,968.8449707
2023-02-07T09:02:53.405Z,968.8366699
2023-02-07T09:03:53.900Z,968.8499756
2023-02-07T09:04:54.376Z,968.8654785
2023-02-07T09:05:54.785Z,968.8800049
2023-02-07T09:06:56.138Z,968.9179077
2023-02-07T09:07:57.429Z,968.949585
2023-02-07T09:08:57.928Z,968.9514771
2023-02-07T09:09:58.378Z,968.9603882
2023-02-07T09:10:59.010Z,968.9769287
2023-02-07T09:11:59.451Z,968.9855957
2023-02-07T09:13:00.015Z,968.9362793
2023-02-07T09:14:00.521Z,968.9296265
2023-02-07T09:15:00.925Z,968.9191284
2023-02-07T09:16:01.494Z,968.984375
2023-02-07T09:17:02.658Z,968.9979858
2023-02-07T09:18:03.206Z,969.0595093
2023-02-07T09:19:03.714Z,969.0662231
2023-02-07T09:20:04.901Z,968.9909668
2023-02-07T09:21:35.603Z,969.0340576
2023-02-07T09:22:36.153Z,968.9995117
2023-02-07T09:23:36.620Z,969.0662231
2023-02-07T09:24:37.077Z,969.0423584
2023-02-07T09:25:37.557Z,969.0092773
2023-02-07T09:26:38.936Z,969.041748
2023-02-07T09:27:39.387Z,969.0470581
2023-02-07T09:28:39.999Z,969.0301514
2023-02-07T09:29:41.421Z,969.0147095
2023-02-07T09:30:42.066Z,969.0136108
2023-02-07T09:31:42.602Z,968.9962769
2023-02-07T09:32:42.957Z,969.0507202
2023-02-07T09:33:43.548Z,969.0956421
2023-02-07T09:34:44.033Z,969.0894775
2023-02-07T09:35:44.550Z,969.052002
2023-02-07T09:36:45.884Z,969.0237427
2023-02-07T09:37:49.766Z,969.0323486
2023-02-07T09:38:46.905Z,969.0179443
2023-02-07T09:39:47.913Z,968.9885864
2023-02-07T09:40:48.569Z,968.9815063
2023-02-07T09:41:48.981Z,969.0231323
2023-02-07T09:42:49.476Z,969.0429688
2023-02-07T09:43:50.266Z,969.0479736
2023-02-07T09:44:50.696Z,969.0892334
2023-02-07T09:45:51.279Z,969.098877
2023-02-07T09:46:52.397Z,969.0387573
2023-02-07T09:47:53.017Z,968.9968872
2023-02-07T09:48:53.473Z,968.9628296
2023-02-07T09:49:54.007Z,968.980835
2023-02-07T09:50:54.622Z,968.9849854
2023-02-07T09:51:55.060Z,969.0333862
2023-02-07T09:52:55.590Z,969.0776367
2023-02-07T09:53:56.150Z,969.0480957
2023-02-07T09:54:56.687Z,969.0505981
2023-02-07T09:55:57.289Z,969.1115112
2023-02-07T09:56:58.399Z,969.0704956
2023-02-07T09:57:58.901Z,969.0534668
2023-02-07T09:58:59.375Z,969.0598145
2023-02-07T09:59:59.863Z,969.0974731
2023-02-07T10:01:00.590Z,969.0705566
2023-02-07T10:02:00.950Z,969.1113892
2023-02-07T10:03:01.885Z,969.1026611
2023-02-07T10:04:02.425Z,969.1660767
2023-02-07T10:05:02.938Z,969.137207
2023-02-07T10:06:16.910Z,969.1213379
2023-02-07T10:07:03.923Z,969.1711426
2023-02-07T10:08:40.798Z,969.1917114
2023-02-07T10:09:35.796Z,969.1658325
2023-02-07T10:10:36.366Z,969.164856
2023-02-07T10:11:36.993Z,969.1693726
2023-02-07T10:12:37.433Z,969.1618652
2023-02-07T10:13:37.979Z,969.1618652
2023-02-07T10:14:38.418Z,969.2089233
2023-02-07T10:15:38.928Z,969.1831055
2023-02-07T10:16:39.433Z,969.1876831
2023-02-07T10:17:41.788Z,969.1227417
2023-02-07T10:18:42.284Z,969.1729736
2023-02-07T10:19:42.702Z,969.1685181
2023-02-07T10:20:43.200Z,969.1638794
2023-02-07T10:21:43.683Z,969.1426392
2023-02-07T10:22:44.271Z,969.1594238
2023-02-07T10:23:44.742Z,969.1412354
2023-02-07T10:24:45.148Z,969.1589355
2023-02-07T10:25:45.614Z,969.1557617
2023-02-07T10:26:46.034Z,969.1431885
2023-02-07T10:27:47.078Z,969.140625
2023-02-07T10:28:47.584Z,969.1712646
2023-02-07T10:29:47.994Z,969.19104
2023-02-07T10:30:48.524Z,969.1641235
2023-02-07T10:31:48.897Z,969.1629639
2023-02-07T10:32:49.435Z,969.1913452
2023-02-07T10:33:49.950Z,969.2424927
2023-02-07T10:34:52.159Z,969.2335815
2023-02-07T10:35:50.974Z,969.2644043
2023-02-07T10:36:51.423Z,969.27948
2023-02-07T10:37:52.667Z,969.3278198
2023-02-07T10:39:03.317Z,969.3825073
2023-02-07T10:39:54.443Z,969.423584
2023-02-07T10:40:54.884Z,969.4020386
2023-02-07T10:41:55.420Z,969.3979492
2023-02-07T10:42:56.050Z,969.4154053
2023-02-07T10:43:56.582Z,969.4421387
2023-02-07T10:44:57.892Z,969.4190674
2023-02-07T10:46:05.477Z,969.3619385
2023-02-07T10:46:58.860Z,969.3810425
2023-02-07T10:48:00.129Z,969.354126
2023-02-07T10:49:00.595Z,969.3013306
2023-02-07T10:50:01.210Z,969.2800293
2023-02-07T10:51:01.676Z,969.208374
2023-02-07T10:52:02.154Z,969.1901855
2023-02-07T10:53:02.645Z,969.1729736
2023-02-07T10:54:03.215Z,969.1295166
2023-02-07T10:55:34.390Z,969.1645508
2023-02-07T10:56:34.896Z,969.1507568
2023-02-07T10:57:36.075Z,969.1186523
2023-02-07T10:58:36.760Z,969.0996704
2023-02-07T10:59:37.901Z,969.1345215
2023-02-07T11:00:38.895Z,969.0934448
2023-02-07T11:01:39.470Z,969.1523438
2023-02-07T11:02:39.727Z,969.1585693
2023-02-07T11:03:40.114Z,969.1303101